Time;durP1;ratioP1;P1;durP2;ratioP2;P2;SDS_P1;SDS_P2;PMS_P1;PMS_P2;Temp;Humidity;BMP_temperature;BMP_pressure;BME280_temperature;BME280_humidity;BME280_pressure;Samples;Min_cycle;Max_cycle;Signal;HPM_P1;HPM_P2
2023/06/18 00:00:05;;;;;;;310.77;149.87;;;;;;;18.82;100.00;98993.88;319531;30;925;-74
2023/06/18 00:00:16;;;;;;;305.27;148.07;;;;;;;18.81;100.00;99001.97;320836;30;2854;-73
2023/06/18 00:00:26;;;;;;;304.52;146.90;;;;;;;18.82;100.00;98993.88;316110;31;2740;-72
2023/06/18 00:00:37;;;;;;;304.83;146.63;;;;;;;18.81;100.00;98997.50;313097;31;2725;-73
2023/06/18 00:00:47;;;;;;;306.67;148.70;;;;;;;18.83;100.00;98998.22;312711;31;830;-73
2023/06/18 00:00:58;;;;;;;310.23;152.15;;;;;;;18.83;100.00;99000.84;312353;31;3292;-73
2023/06/18 00:01:09;;;;;;;312.00;153.63;;;;;;;18.82;100.00;98996.53;311847;31;3322;-74
2023/06/18 00:01:19;;;;;;;310.15;152.35;;;;;;;18.81;100.00;98992.19;311760;31;902;-73
2023/06/18 00:01:30;;;;;;;309.02;150.27;;;;;;;18.82;100.00;98999.19;308944;31;2511;-73
2023/06/18 00:01:40;;;;;;;309.05;149.88;;;;;;;18.84;100.00;98999.88;310163;31;2288;-73
2023/06/18 00:01:51;;;;;;;307.77;150.37;;;;;;;18.82;100.00;98995.69;310540;31;900;-73
2023/06/18 00:02:01;;;;;;;304.35;149.23;;;;;;;18.82;100.00;99003.63;309962;31;3035;-74
2023/06/18 00:02:12;;;;;;;305.77;151.37;;;;;;;18.82;100.00;98993.88;307394;31;4047;-74
2023/06/18 00:02:23;;;;;;;307.10;149.88;;;;;;;18.82;100.00;98993.88;303971;32;4471;-74
2023/06/18 00:02:33;;;;;;;309.13;151.63;;;;;;;18.84;100.00;98997.25;301752;32;1408;-74
2023/06/18 00:02:44;;;;;;;309.73;151.05;;;;;;;18.84;100.00;98997.25;300214;32;4374;-74
2023/06/18 00:02:54;;;;;;;310.70;153.10;;;;;;;18.82;100.00;98998.34;298826;32;3701;-73
2023/06/18 00:03:04;;;;;;;311.70;153.80;;;;;;;18.79;100.00;98994.13;300000;32;802;-73
2023/06/18 00:03:15;;;;;;;311.30;153.00;;;;;;;18.77;100.00;98996.06;298659;32;4664;-73
2023/06/18 00:03:25;;;;;;;308.15;149.80;;;;;;;18.75;100.00;98992.72;298534;32;4752;-73
2023/06/18 00:03:36;;;;;;;306.30;149.60;;;;;;;18.74;100.00;98995.47;299031;33;814;-74
2023/06/18 00:03:46;;;;;;;306.65;148.63;;;;;;;18.73;100.00;99004.41;300157;32;3181;-74
2023/06/18 00:03:57;;;;;;;308.63;149.17;;;;;;;18.74;100.00;98996.31;298210;32;3401;-74
2023/06/18 00:04:07;;;;;;;310.30;149.90;;;;;;;18.75;100.00;98997.16;295905;32;4777;-73
2023/06/18 00:04:18;;;;;;;309.80;151.63;;;;;;;18.76;100.00;98998.84;298933;33;1195;-73
2023/06/18 00:04:28;;;;;;;312.35;154.05;;;;;;;18.76;100.00;99005.00;297799;32;6446;-74
2023/06/18 00:04:38;;;;;;;311.67;153.93;;;;;;;18.76;100.00;98994.38;294690;33;7183;-74
2023/06/18 00:04:49;;;;;;;310.30;153.03;;;;;;;18.75;100.00;98992.72;293991;33;1319;-74
2023/06/18 00:04:59;;;;;;;304.10;149.13;;;;;;;18.75;100.00;98995.34;294900;33;6464;-74
2023/06/18 00:05:10;;;;;;;304.40;149.30;;;;;;;18.75;100.00;98998.00;294090;33;5472;-73
2023/06/18 00:05:20;;;;;;;309.07;152.20;;;;;;;18.75;100.00;98998.00;293987;33;844;-73
2023/06/18 00:05:31;;;;;;;315.83;154.77;;;;;;;18.74;100.00;99001.63;290683;33;6058;-74
2023/06/18 00:05:42;;;;;;;314.92;153.45;;;;;;;18.73;100.00;98992.00;287606;34;6457;-75
2023/06/18 00:05:54;;;;;;;314.43;152.87;;;;;;;18.72;100.00;98992.97;286398;33;5134;-74
2023/06/18 00:06:04;;;;;;;309.30;150.75;;;;;;;18.74;100.00;98996.31;287600;34;1381;-74
2023/06/18 00:06:15;;;;;;;306.00;150.20;;;;;;;18.75;100.00;99003.31;285608;33;6321;-73
2023/06/18 00:06:25;;;;;;;302.45;149.07;;;;;;;18.73;100.00;99002.59;285434;34;6996;-74
2023/06/18 00:06:36;;;;;;;302.35;149.52;;;;;;;18.74;100.00;98998.97;287537;34;1841;-73
2023/06/18 00:08:28;;;;;;;295.06;136.11;;;;;;;18.78;100.00;98997.75;2489204;27;20742;-73
2023/06/18 00:08:38;;;;;;;311.70;153.37;;;;;;;18.79;100.00;98996.78;351566;27;5223;-74
2023/06/18 00:08:49;;;;;;;312.85;156.30;;;;;;;18.81;100.00;98996.66;351141;28;3382;-74
2023/06/18 00:08:59;;;;;;;311.43;152.07;;;;;;;18.80;100.00;98990.50;347315;28;3387;-74
2023/06/18 00:09:10;;;;;;;306.60;148.50;;;;;;;18.80;100.00;98995.81;348529;28;3558;-74
2023/06/18 00:09:21;;;;;;;304.97;147.03;;;;;;;18.80;100.00;98995.81;347665;28;797;-73
2023/06/18 00:09:31;;;;;;;300.05;144.98;;;;;;;18.79;100.00;98999.44;347479;28;907;-74
2023/06/18 00:09:42;;;;;;;303.55;146.45;;;;;;;18.78;100.00;98989.78;347363;28;2063;-74
2023/06/18 00:09:52;;;;;;;305.03;149.00;;;;;;;18.78;100.00;98991.59;350836;28;1240;-74
2023/06/18 00:10:04;;;;;;;307.80;152.37;;;;;;;18.78;100.00;98999.56;350157;28;983;-74
2023/06/18 00:10:14;;;;;;;304.27;150.38;;;;;;;18.79;100.00;98996.78;348885;28;801;-74
2023/06/18 00:10:25;;;;;;;306.67;150.05;;;;;;;18.78;100.00;99000.41;349721;28;1653;-73
2023/06/18 00:10:35;;;;;;;307.23;149.97;;;;;;;18.79;100.00;98998.59;348846;28;973;-74
2023/06/18 00:10:46;;;;;;;309.57;151.00;;;;;;;18.79;100.00;98998.59;348428;28;2045;-74
2023/06/18 00:10:56;;;;;;;308.48;150.60;;;;;;;18.79;100.00;98998.59;345973;28;879;-74
2023/06/18 00:11:07;;;;;;;307.13;147.95;;;;;;;18.79;100.00;98999.44;346150;28;1225;-75
2023/06/18 00:11:17;;;;;;;306.27;147.47;;;;;;;18.81;100.00;99000.16;347253;28;1362;-73
2023/06/18 00:11:27;;;;;;;305.00;146.63;;;;;;;18.82;100.00;98995.69;347427;28;1207;-74
2023/06/18 00:11:38;;;;;;;307.30;147.52;;;;;;;18.82;100.00;98999.19;347432;28;1216;-74
2023/06/18 00:11:48;;;;;;;307.60;148.03;;;;;;;18.80;100.00;98998.47;346215;28;932;-74
2023/06/18 00:11:59;;;;;;;307.27;148.68;;;;;;;18.80;100.00;98993.16;348741;28;1629;-73
2023/06/18 00:12:10;;;;;;;304.93;148.63;;;;;;;18.81;100.00;99000.16;349173;28;1425;-74
2023/06/18 00:12:21;;;;;;;305.40;150.52;;;;;;;18.80;100.00;98997.63;349094;28;1298;-73
2023/06/18 00:12:31;;;;;;;307.23;152.20;;;;;;;18.80;100.00;98994.97;348749;28;1177;-73
2023/06/18 00:12:41;;;;;;;308.38;153.77;;;;;;;18.81;100.00;98996.66;351442;28;1406;-73
2023/06/18 00:12:52;;;;;;;307.70;151.77;;;;;;;18.80;100.00;98990.50;351480;28;1369;-74
2023/06/18 00:13:03;;;;;;;306.97;149.83;;;;;;;18.77;100.00;98996.06;347189;28;1686;-74
2023/06/18 00:13:14;;;;;;;305.67;146.38;;;;;;;18.77;100.00;98997.88;346007;28;1434;-74
2023/06/18 00:13:25;;;;;;;302.85;144.77;;;;;;;18.76;100.00;98997.03;346892;28;797;-74
2023/06/18 00:13:35;;;;;;;303.40;145.37;;;;;;;18.76;100.00;98997.03;345920;28;1193;-74
2023/06/18 00:13:45;;;;;;;304.70;147.65;;;;;;;18.77;100.00;98992.56;345880;28;1673;-74
2023/06/18 00:13:56;;;;;;;304.67;148.97;;;;;;;18.74;100.00;98998.97;346020;28;1332;-74
2023/06/18 00:14:06;;;;;;;305.80;149.07;;;;;;;18.74;100.00;98996.31;345210;28;904;-74
2023/06/18 00:14:17;;;;;;;303.10;146.40;;;;;;;18.73;100.00;98999.09;346021;28;851;-74
2023/06/18 00:14:28;;;;;;;303.30;146.10;;;;;;;18.73;100.00;98997.28;346100;28;860;-75
2023/06/18 00:14:38;;;;;;;300.60;146.75;;;;;;;18.74;100.00;98992.84;342362;28;1444;-75
2023/06/18 00:14:49;;;;;;;299.67;147.73;;;;;;;18.76;100.00;99002.34;341634;28;1412;-73
2023/06/18 00:14:59;;;;;;;299.92;147.75;;;;;;;18.77;100.00;99001.38;340755;29;853;-73
2023/06/18 00:15:10;;;;;;;303.60;148.67;;;;;;;18.78;100.00;98997.75;337920;29;1259;-73
2023/06/18 00:15:20;;;;;;;306.83;148.10;;;;;;;18.79;100.00;98999.44;340801;28;1226;-73
2023/06/18 00:15:32;;;;;;;309.02;149.30;;;;;;;18.79;100.00;98993.28;340839;28;1623;-74
2023/06/18 00:15:42;;;;;;;308.60;148.27;;;;;;;18.76;100.00;98994.38;342074;28;778;-74
2023/06/18 00:15:52;;;;;;;307.00;147.10;;;;;;;18.74;100.00;98993.69;339891;29;1194;-74
2023/06/18 00:16:03;;;;;;;310.90;147.63;;;;;;;18.72;100.00;98995.63;340447;28;1308;-74
2023/06/18 00:16:13;;;;;;;313.97;148.43;;;;;;;18.74;100.00;98995.47;339447;29;1063;-74
2023/06/18 00:16:24;;;;;;;314.83;147.68;;;;;;;18.72;100.00;98992.97;339040;29;1532;-74
2023/06/18 00:16:35;;;;;;;310.33;147.13;;;;;;;18.74;100.00;98996.31;340643;28;1600;-74
2023/06/18 00:16:45;;;;;;;306.75;146.43;;;;;;;18.75;100.00;98998.00;340669;29;1405;-73
2023/06/18 00:16:56;;;;;;;306.00;146.00;;;;;;;18.76;100.00;99001.50;340203;29;1306;-73
2023/06/18 00:17:06;;;;;;;304.38;144.88;;;;;;;18.76;100.00;98989.09;338911;29;1692;-74
2023/06/18 00:17:17;;;;;;;305.13;145.33;;;;;;;18.77;100.00;98998.72;338013;29;1117;-74
2023/06/18 00:17:27;;;;;;;306.52;146.60;;;;;;;18.78;100.00;98991.59;335420;29;1285;-74
2023/06/18 00:17:38;;;;;;;307.77;147.57;;;;;;;18.78;100.00;98997.75;336912;29;1327;-74
2023/06/18 00:17:48;;;;;;;307.02;148.52;;;;;;;18.79;100.00;99001.25;336437;29;4097;-73
2023/06/18 00:17:58;;;;;;;307.57;149.47;;;;;;;18.79;100.00;98988.81;335924;29;5409;-74
2023/06/18 00:18:09;;;;;;;306.20;147.45;;;;;;;18.81;100.00;98994.84;334164;29;5440;-74
2023/06/18 00:18:20;;;;;;;310.20;149.55;;;;;;;18.81;100.00;98992.19;331490;29;1487;-74
2023/06/18 00:18:32;;;;;;;309.87;150.40;;;;;;;18.79;100.00;98993.28;329315;30;1363;-73
2023/06/18 00:18:42;;;;;;;309.55;148.88;;;;;;;18.76;100.00;98999.69;328715;30;1260;-74
2023/06/18 00:18:52;;;;;;;307.83;147.40;;;;;;;18.76;100.00;98994.38;330993;29;1855;-74
2023/06/18 00:19:03;;;;;;;308.70;147.05;;;;;;;18.74;100.00;98998.97;328948;29;2104;-74
2023/06/18 00:19:13;;;;;;;308.10;148.30;;;;;;;18.74;100.00;98996.31;328053;30;934;-74
2023/06/18 00:19:24;;;;;;;308.33;147.27;;;;;;;18.77;100.00;98997.88;326888;30;1746;-74
2023/06/18 00:19:35;;;;;;;307.33;148.27;;;;;;;18.77;100.00;98996.06;324807;30;1699;-75
2023/06/18 00:19:45;;;;;;;305.95;148.15;;;;;;;18.79;100.00;98999.44;326612;30;1525;-74
2023/06/18 00:19:56;;;;;;;303.20;148.13;;;;;;;18.79;100.00;99003.91;325275;30;1283;-73
2023/06/18 00:20:07;;;;;;;303.50;147.83;;;;;;;18.78;100.00;98997.75;327862;30;913;-73
2023/06/18 00:20:17;;;;;;;306.25;148.35;;;;;;;18.78;100.00;98995.09;325179;30;1857;-74
2023/06/18 00:20:27;;;;;;;316.23;149.70;;;;;;;18.79;100.00;98999.44;320805;30;1200;-74
2023/06/18 00:20:38;;;;;;;317.63;150.32;;;;;;;18.79;100.00;98994.13;322038;30;2066;-74
2023/06/18 00:20:49;;;;;;;313.87;149.53;;;;;;;18.80;100.00;99002.94;323711;30;2327;-74
2023/06/18 00:21:00;;;;;;;305.52;149.75;;;;;;;18.80;100.00;98998.47;320899;30;809;-74
2023/06/18 00:21:12;;;;;;;304.63;150.93;;;;;;;18.81;100.00;98997.50;325429;30;2463;-73
2023/06/18 00:21:22;;;;;;;307.23;152.75;;;;;;;18.81;100.00;98999.31;322009;30;2588;-72
2023/06/18 00:21:32;;;;;;;307.90;152.15;;;;;;;18.80;100.00;98995.81;320753;30;2703;-72
2023/06/18 00:21:43;;;;;;;309.47;151.90;;;;;;;18.79;100.00;99004.75;319666;30;1100;-73
2023/06/18 00:21:53;;;;;;;306.93;149.80;;;;;;;18.78;100.00;98992.44;319707;30;1837;-75
2023/06/18 00:22:05;;;;;;;305.70;149.70;;;;;;;18.79;100.00;98999.44;317097;31;972;-74
2023/06/18 00:22:15;;;;;;;305.48;147.13;;;;;;;18.79;100.00;98994.13;316444;31;1452;-73
2023/06/18 00:22:26;;;;;;;306.83;148.43;;;;;;;18.80;100.00;98993.16;316807;31;1854;-73
2023/06/18 00:22:38;;;;;;;307.75;151.00;;;;;;;18.81;100.00;98994.00;317300;30;2363;-74
2023/06/18 00:22:52;;;;;;;304.48;150.90;;;;;;;18.79;100.00;98996.78;314165;31;2686;-75
2023/06/18 00:23:03;;;;;;;302.98;148.50;;;;;;;18.80;100.00;99000.28;307575;31;2901;-73
2023/06/18 00:23:13;;;;;;;300.30;145.63;;;;;;;18.80;100.00;98993.16;306940;32;1656;-74
2023/06/18 00:23:24;;;;;;;300.47;145.27;;;;;;;18.80;100.00;98995.81;308047;31;2834;-73
2023/06/18 00:23:36;;;;;;;301.67;145.63;;;;;;;18.81;100.00;99002.81;308208;31;3597;-74
2023/06/18 00:23:47;;;;;;;302.17;145.73;;;;;;;18.80;100.00;98995.81;307419;32;899;-75
2023/06/18 00:23:57;;;;;;;301.50;147.13;;;;;;;18.77;100.00;98996.06;308940;31;1427;-73
2023/06/18 00:24:08;;;;;;;305.90;149.47;;;;;;;18.75;100.00;98995.34;307516;32;2296;-74
2023/06/18 00:24:18;;;;;;;309.45;151.27;;;;;;;18.75;100.00;98992.72;307239;31;2147;-73
2023/06/18 00:24:29;;;;;;;309.90;150.63;;;;;;;18.74;100.00;98996.31;308305;31;1200;-73
2023/06/18 00:24:39;;;;;;;306.58;149.20;;;;;;;18.75;100.00;98998.00;304906;32;3308;-73
2023/06/18 00:24:50;;;;;;;308.37;149.87;;;;;;;18.76;100.00;98994.38;303598;31;3984;-73
2023/06/18 00:25:00;;;;;;;310.75;150.63;;;;;;;18.78;100.00;99004.88;301977;32;1629;-73
2023/06/18 00:25:10;;;;;;;312.30;153.33;;;;;;;18.78;100.00;99000.41;306386;32;4246;-73
2023/06/18 00:25:21;;;;;;;308.33;150.93;;;;;;;18.79;100.00;98999.44;304267;32;4413;-73
2023/06/18 00:25:31;;;;;;;306.17;149.10;;;;;;;18.80;100.00;99000.28;303192;32;923;-74
2023/06/18 00:25:42;;;;;;;304.50;147.53;;;;;;;18.79;100.00;98994.13;299153;32;4700;-74
2023/06/18 00:25:52;;;;;;;309.58;148.20;;;;;;;18.81;100.00;98997.50;299246;32;4610;-74
2023/06/18 00:26:02;;;;;;;308.43;150.63;;;;;;;18.82;100.00;98998.34;300274;32;4205;-73
2023/06/18 00:26:13;;;;;;;308.10;150.05;;;;;;;18.84;100.00;98999.88;298325;33;1307;-73
2023/06/18 00:26:25;;;;;;;305.43;151.43;;;;;;;18.81;100.00;99002.81;297450;33;3075;-74
2023/06/18 00:26:35;;;;;;;306.70;149.98;;;;;;;18.80;100.00;98998.47;292442;33;3418;-74
2023/06/18 00:26:46;;;;;;;307.98;152.10;;;;;;;18.79;100.00;98993.28;289236;34;911;-74
2023/06/18 00:26:56;;;;;;;308.03;152.00;;;;;;;18.77;100.00;98993.41;291570;33;3974;-74
2023/06/18 00:27:06;;;;;;;308.13;152.47;;;;;;;18.79;100.00;99004.75;291376;33;5650;-73
2023/06/18 00:27:17;;;;;;;309.80;153.02;;;;;;;18.79;100.00;98994.13;291106;33;5265;-73
2023/06/18 00:27:27;;;;;;;312.30;153.53;;;;;;;18.80;100.00;99000.28;287995;34;3529;-74
2023/06/18 00:27:38;;;;;;;317.88;154.55;;;;;;;18.79;100.00;98999.44;283574;34;8866;-73
2023/06/18 00:27:48;;;;;;;317.40;154.27;;;;;;;18.79;100.00;98999.44;280475;34;6158;-72
2023/06/18 00:27:59;;;;;;;315.10;154.32;;;;;;;18.81;100.00;99002.81;281799;35;1065;-74
2023/06/18 00:28:09;;;;;;;309.70;153.50;;;;;;;18.80;100.00;99006.41;277662;35;6233;-74
2023/06/18 00:28:20;;;;;;;306.23;151.90;;;;;;;18.79;100.00;99002.09;276453;35;6599;-74
2023/06/18 00:28:31;;;;;;;304.20;151.27;;;;;;;18.80;100.00;99000.28;277265;35;1334;-74
2023/06/18 00:28:41;;;;;;;306.52;154.68;;;;;;;18.81;100.00;99002.81;276913;35;4596;-74
2023/06/18 00:28:52;;;;;;;307.80;154.75;;;;;;;18.80;100.00;98998.47;275917;35;4908;-74
2023/06/18 00:29:02;;;;;;;308.83;155.67;;;;;;;18.80;100.00;98995.81;271068;36;6134;-72
2023/06/18 00:29:13;;;;;;;306.63;152.82;;;;;;;18.80;100.00;99002.94;270484;36;950;-75
2023/06/18 00:29:23;;;;;;;306.17;153.10;;;;;;;18.79;100.00;98999.44;269326;36;10710;-74
2023/06/18 00:31:25;;;;;;;300.94;143.21;;;;;;;18.84;100.00;99001.69;2501036;27;20486;-73
2023/06/18 00:31:36;;;;;;;304.95;149.40;;;;;;;18.83;100.00;99003.50;354421;27;898;-76
2023/06/18 00:31:47;;;;;;;307.98;151.40;;;;;;;18.81;100.00;98997.50;351566;28;1804;-76
2023/06/18 00:31:57;;;;;;;308.73;151.90;;;;;;;18.80;100.00;99003.75;347871;28;1395;-75
2023/06/18 00:32:08;;;;;;;305.80;149.02;;;;;;;18.80;100.00;99005.56;348748;28;1738;-75
2023/06/18 00:32:18;;;;;;;306.03;153.40;;;;;;;18.79;100.00;99002.09;349251;28;1275;-75
2023/06/18 00:32:28;;;;;;;305.27;152.10;;;;;;;18.80;100.00;99001.13;348837;28;1509;-74
2023/06/18 00:32:44;;;;;;;307.77;153.03;;;;;;;18.79;100.00;99004.75;348860;28;1441;-74
2023/06/18 00:32:54;;;;;;;307.95;149.68;;;;;;;18.80;100.00;99003.75;347319;28;910;-73
2023/06/18 00:33:06;;;;;;;307.67;149.83;;;;;;;18.79;100.00;99003.91;348565;28;5275;-73
2023/06/18 00:33:16;;;;;;;305.23;148.55;;;;;;;18.80;100.00;99003.75;347757;28;1028;-73
2023/06/18 00:33:32;;;;;;;305.43;148.70;;;;;;;18.81;100.00;99008.09;348779;28;1236;-73
2023/06/18 00:33:44;;;;;;;306.05;148.65;;;;;;;18.82;100.00;99001.00;347524;28;888;-74
2023/06/18 00:33:55;;;;;;;308.00;149.13;;;;;;;18.78;100.00;98997.75;344860;28;959;-74
2023/06/18 00:34:06;;;;;;;307.80;150.32;;;;;;;18.76;100.00;98997.03;344609;28;1372;-73
2023/06/18 00:34:17;;;;;;;306.85;149.27;;;;;;;18.76;100.00;99001.50;346004;28;1394;-73
2023/06/18 00:34:32;;;;;;;305.70;148.63;;;;;;;18.76;100.00;99005.00;347431;28;1353;-74
2023/06/18 00:34:44;;;;;;;306.15;145.52;;;;;;;18.76;100.00;98994.38;346111;28;915;-74
2023/06/18 00:34:55;;;;;;;306.52;145.73;;;;;;;18.77;100.00;99004.03;346180;28;900;-76
2023/06/18 00:35:05;;;;;;;301.20;145.85;;;;;;;18.79;100.00;99001.25;345692;28;1840;-74
2023/06/18 00:35:16;;;;;;;304.33;147.07;;;;;;;18.78;100.00;98999.56;347147;28;1033;-75
2023/06/18 00:35:26;;;;;;;305.77;147.93;;;;;;;18.76;100.00;98999.69;346648;28;1306;-73
2023/06/18 00:35:38;;;;;;;310.30;151.87;;;;;;;18.75;100.00;99002.47;345949;28;1212;-73
2023/06/18 00:35:56;;;;;;;308.55;150.52;;;;;;;18.75;100.00;98998.00;343806;28;1784;-74
2023/06/18 00:36:08;;;;;;;310.17;150.65;;;;;;;18.79;100.00;99009.19;342034;28;843;-74
2023/06/18 00:36:20;;;;;;;307.63;152.10;;;;;;;18.79;100.00;99007.38;341972;28;837;-74
2023/06/18 00:36:31;;;;;;;306.92;151.38;;;;;;;18.79;100.00;99004.75;344858;28;939;-74
2023/06/18 00:36:43;;;;;;;306.38;150.02;;;;;;;18.80;100.00;99001.13;343414;28;904;-74
2023/06/18 00:36:54;;;;;;;306.02;148.60;;;;;;;18.81;100.00;99002.81;340465;29;1941;-74
2023/06/18 00:37:09;;;;;;;304.83;148.88;;;;;;;18.83;100.00;99006.16;344062;28;1245;-74
2023/06/18 00:37:20;;;;;;;309.17;151.88;;;;;;;18.82;100.00;98999.19;345808;28;1244;-72
2023/06/18 00:37:32;;;;;;;309.27;152.77;;;;;;;18.84;100.00;98996.41;343536;28;1256;-74
2023/06/18 00:37:45;;;;;;;310.95;153.50;;;;;;;18.82;100.00;99007.13;346160;28;852;-74
2023/06/18 00:37:56;;;;;;;308.38;153.80;;;;;;;18.82;100.00;99003.63;344700;28;1244;-74
2023/06/18 00:38:06;;;;;;;306.08;151.00;;;;;;;18.81;100.00;99005.44;341009;28;1177;-74
2023/06/18 00:38:17;;;;;;;306.15;150.57;;;;;;;18.81;100.00;98996.66;341533;28;1342;-73
2023/06/18 00:38:28;;;;;;;304.10;149.73;;;;;;;18.83;100.00;99000.84;343246;28;1233;-73
2023/06/18 00:38:46;;;;;;;301.98;148.77;;;;;;;18.84;100.00;98997.25;340051;28;1844;-73
2023/06/18 00:38:57;;;;;;;302.60;149.60;;;;;;;18.84;100.00;98999.88;346138;28;1067;-74
2023/06/18 00:39:08;;;;;;;302.92;149.88;;;;;;;18.84;100.00;99002.53;346171;28;1303;-74
2023/06/18 00:39:19;;;;;;;300.45;148.95;;;;;;;18.86;100.00;99005.06;345919;28;1262;-74
2023/06/18 00:39:29;;;;;;;300.57;148.43;;;;;;;18.87;100.00;99007.59;345909;28;1186;-74
2023/06/18 00:39:40;;;;;;;301.85;149.02;;;;;;;18.88;100.00;99006.63;343391;28;773;-74
2023/06/18 00:39:50;;;;;;;305.03;149.27;;;;;;;18.87;100.00;99002.28;344848;28;1707;-74
2023/06/18 00:40:01;;;;;;;305.30;147.93;;;;;;;18.85;100.00;98998.06;342053;28;1665;-73
2023/06/18 00:40:12;;;;;;;306.87;149.50;;;;;;;18.84;100.00;99001.69;340645;29;1048;-74
2023/06/18 00:40:23;;;;;;;308.23;152.18;;;;;;;18.84;100.00;99002.53;342088;28;2272;-74
2023/06/18 00:40:33;;;;;;;308.17;154.03;;;;;;;18.84;100.00;98999.88;342622;28;1035;-73
2023/06/18 00:40:43;;;;;;;308.85;154.15;;;;;;;18.83;100.00;98998.22;340576;29;1338;-73
2023/06/18 00:40:54;;;;;;;310.27;153.67;;;;;;;18.83;100.00;98995.56;343398;28;892;-73
2023/06/18 00:41:05;;;;;;;310.90;152.57;;;;;;;18.83;100.00;99006.16;342218;28;1448;-75
2023/06/18 00:41:16;;;;;;;309.05;151.45;;;;;;;18.79;100.00;98999.44;341948;28;1708;-75
2023/06/18 00:41:27;;;;;;;307.30;151.52;;;;;;;18.81;100.00;98999.31;339118;29;4050;-74
2023/06/18 00:41:37;;;;;;;311.05;154.55;;;;;;;18.80;100.00;98998.47;340717;28;4764;-74
2023/06/18 00:41:48;;;;;;;313.17;155.63;;;;;;;18.82;100.00;98998.34;338141;29;3125;-75
2023/06/18 00:41:58;;;;;;;314.95;154.93;;;;;;;18.81;100.00;98997.50;332784;29;5679;-75
2023/06/18 00:42:11;;;;;;;313.77;155.47;;;;;;;18.82;100.00;99001.81;331311;29;3520;-75
2023/06/18 00:42:21;;;;;;;312.27;153.68;;;;;;;18.82;100.00;98999.19;333074;29;2187;-75
2023/06/18 00:42:32;;;;;;;306.88;152.25;;;;;;;18.84;100.00;99001.69;332883;29;1485;-74
2023/06/18 00:42:42;;;;;;;306.20;150.68;;;;;;;18.84;100.00;98999.88;331855;29;617;-74
2023/06/18 00:42:55;;;;;;;306.03;151.83;;;;;;;18.85;100.00;98998.91;331478;29;950;-75
2023/06/18 00:43:06;;;;;;;304.98;152.45;;;;;;;18.83;100.00;99000.84;332016;29;1504;-75
2023/06/18 00:43:17;;;;;;;306.38;153.32;;;;;;;18.83;100.00;98995.56;334197;29;1688;-72
2023/06/18 00:43:27;;;;;;;309.00;153.00;;;;;;;18.82;100.00;99001.81;333405;29;1145;-73
2023/06/18 00:43:38;;;;;;;311.33;154.20;;;;;;;18.80;100.00;98992.31;334756;29;2109;-73
2023/06/18 00:43:49;;;;;;;310.40;154.07;;;;;;;18.80;100.00;99002.94;331692;29;2212;-75
2023/06/18 00:44:00;;;;;;;308.92;152.90;;;;;;;18.80;100.00;98998.47;332485;29;2271;-75
2023/06/18 00:44:11;;;;;;;309.08;153.98;;;;;;;18.80;100.00;98994.97;333062;29;846;-74
2023/06/18 00:44:21;;;;;;;310.17;155.25;;;;;;;18.78;100.00;98992.44;329711;29;2743;-73
2023/06/18 00:44:32;;;;;;;309.47;153.80;;;;;;;18.76;100.00;99005.00;330108;29;2686;-73
2023/06/18 00:44:42;;;;;;;310.50;151.65;;;;;;;18.77;100.00;99001.38;329211;29;1369;-73
2023/06/18 00:44:53;;;;;;;308.80;149.90;;;;;;;18.77;100.00;98996.06;329919;29;1567;-74
2023/06/18 00:45:04;;;;;;;308.73;149.55;;;;;;;18.79;100.00;99003.91;329869;29;1427;-73
2023/06/18 00:45:16;;;;;;;304.83;149.60;;;;;;;18.80;100.00;98998.47;328763;29;1972;-73
2023/06/18 00:45:29;;;;;;;306.27;150.32;;;;;;;18.81;100.00;98994.00;329994;29;1538;-73
2023/06/18 00:45:39;;;;;;;306.25;149.05;;;;;;;18.84;100.00;99001.69;325710;30;1080;-73
2023/06/18 00:45:50;;;;;;;308.90;150.30;;;;;;;18.84;100.00;98994.59;325910;29;2815;-74
2023/06/18 00:46:00;;;;;;;308.17;150.97;;;;;;;18.85;100.00;98996.28;324263;30;2967;-74
2023/06/18 00:46:11;;;;;;;309.92;154.80;;;;;;;18.85;100.00;98998.91;327945;30;1041;-73
2023/06/18 00:46:21;;;;;;;310.50;156.37;;;;;;;18.86;100.00;98999.75;327682;30;3444;-73
2023/06/18 00:46:35;;;;;;;308.92;153.52;;;;;;;18.84;100.00;98997.25;327735;29;3392;-77
2023/06/18 00:46:46;;;;;;;308.77;153.57;;;;;;;18.84;100.00;99005.19;324400;30;3180;-74
2023/06/18 00:46:59;;;;;;;310.75;155.65;;;;;;;18.83;100.00;98990.25;325720;30;852;-73
2023/06/18 00:47:13;;;;;;;307.75;154.40;;;;;;;18.85;100.00;99004.22;320130;30;1695;-73
2023/06/18 00:47:24;;;;;;;307.27;153.95;;;;;;;18.86;100.00;98999.75;317921;30;2196;-73
2023/06/18 00:47:40;;;;;;;308.30;154.67;;;;;;;18.86;100.00;98995.28;318534;30;2769;-73
2023/06/18 00:47:51;;;;;;;307.38;153.35;;;;;;;18.82;100.00;98993.03;318651;30;3349;-73
2023/06/18 00:48:01;;;;;;;305.47;151.63;;;;;;;18.83;100.00;98995.56;317619;30;3982;-73
2023/06/18 00:48:13;;;;;;;305.67;151.05;;;;;;;18.83;100.00;99000.84;317403;31;794;-73
2023/06/18 00:48:25;;;;;;;306.13;151.85;;;;;;;18.85;100.00;99003.38;314854;31;1386;-73
2023/06/18 00:48:36;;;;;;;306.63;152.27;;;;;;;18.83;100.00;99000.84;317211;30;4352;-73
2023/06/18 00:48:47;;;;;;;307.87;153.83;;;;;;;18.82;100.00;98993.88;316000;31;4784;-73
2023/06/18 00:48:58;;;;;;;305.88;152.35;;;;;;;18.84;100.00;99007.00;309566;31;954;-73
2023/06/18 00:49:08;;;;;;;308.63;153.50;;;;;;;18.83;100.00;98998.22;309834;31;4524;-73
2023/06/18 00:49:19;;;;;;;308.60;155.07;;;;;;;18.83;100.00;98992.91;312105;31;3028;-73
2023/06/18 00:49:29;;;;;;;309.60;156.23;;;;;;;18.82;100.00;98998.34;312809;31;2902;-74
2023/06/18 00:49:43;;;;;;;310.50;157.93;;;;;;;18.80;100.00;98998.47;309517;31;1737;-75
2023/06/18 00:49:55;;;;;;;309.98;155.65;;;;;;;18.81;100.00;98999.31;309105;31;926;-74
2023/06/18 00:50:06;;;;;;;308.15;152.20;;;;;;;18.81;100.00;98992.19;310571;31;4791;-74
2023/06/18 00:50:17;;;;;;;306.10;150.17;;;;;;;18.82;100.00;98993.88;308158;31;7704;-74
2023/06/18 00:50:29;;;;;;;306.23;151.07;;;;;;;18.84;100.00;99005.19;305260;32;887;-75
2023/06/18 00:50:40;;;;;;;306.70;151.95;;;;;;;18.84;100.00;98997.25;307342;32;895;-74
2023/06/18 00:50:51;;;;;;;309.92;155.48;;;;;;;18.84;100.00;98996.41;302935;32;6560;-74
2023/06/18 00:51:03;;;;;;;311.25;158.65;;;;;;;18.85;100.00;98996.28;295658;32;6480;-74
2023/06/18 00:51:16;;;;;;;312.70;158.32;;;;;;;18.86;100.00;99000.59;294769;33;5569;-74
2023/06/18 00:51:26;;;;;;;318.55;159.07;;;;;;;18.87;100.00;98996.13;295179;33;3521;-74
2023/06/18 00:51:36;;;;;;;315.97;157.40;;;;;;;18.86;100.00;98990.00;296334;33;4507;-74
2023/06/18 00:51:47;;;;;;;310.83;155.73;;;;;;;18.87;100.00;98996.97;295319;33;4867;-74
2023/06/18 00:51:58;;;;;;;309.65;154.40;;;;;;;18.86;100.00;98995.28;294058;33;818;-74
2023/06/18 00:52:14;;;;;;;310.52;155.95;;;;;;;18.84;100.00;98997.25;295387;33;5403;-74
2023/06/18 00:52:25;;;;;;;309.35;154.70;;;;;;;18.82;100.00;98993.88;295006;33;953;-74
2023/06/18 00:52:36;;;;;;;307.38;151.30;;;;;;;18.84;100.00;99001.69;292141;33;9064;-73
2023/06/18 00:52:47;;;;;;;306.73;149.80;;;;;;;18.83;100.00;98997.38;286733;34;9023;-73
2023/06/18 00:53:00;;;;;;;307.00;151.35;;;;;;;18.84;100.00;98996.41;284290;34;1312;-73
2023/06/18 00:54:53;;;;;;;254.83;120.30;;;;;;;18.82;100.00;98993.88;2500239;27;20496;-74
2023/06/18 00:55:04;;;;;;;307.70;148.13;;;;;;;18.82;100.00;98988.56;354282;27;938;-74